sensor_id;sensor_type;location;lat;lon;timestamp;pressure;altitude;pressure_sealevel;temperature;humidity
61292;BME280;47165;42.664;23.368;2022-11-20T00:01:16;94295.13;;;15.76;66.99
61292;BME280;47165;42.664;23.368;2022-11-20T00:03:41;94317.72;;;15.79;67.11
61292;BME280;47165;42.664;23.368;2022-11-20T00:06:09;94325.63;;;15.88;66.86
61292;BME280;47165;42.664;23.368;2022-11-20T00:08:35;94334.22;;;15.91;66.88
61292;BME280;47165;42.664;23.368;2022-11-20T00:11:20;94332.03;;;15.96;66.72
61292;BME280;47165;42.664;23.368;2022-11-20T00:13:49;94319.94;;;15.93;67.02
61292;BME280;47165;42.664;23.368;2022-11-20T00:16:21;94312.34;;;16.00;65.98
61292;BME280;47165;42.664;23.368;2022-11-20T00:18:47;94312.34;;;15.90;66.23
61292;BME280;47165;42.664;23.368;2022-11-20T00:21:15;94342.66;;;15.84;66.73
61292;BME280;47165;42.664;23.368;2022-11-20T00:23:42;94325.38;;;15.92;66.73
61292;BME280;47165;42.664;23.368;2022-11-20T00:26:09;94296.25;;;16.03;66.84
61292;BME280;47165;42.664;23.368;2022-11-20T00:28:36;94313.72;;;15.84;66.82
61292;BME280;47165;42.664;23.368;2022-11-20T00:31:07;94306.22;;;15.80;66.56
61292;BME280;47165;42.664;23.368;2022-11-20T00:33:34;94263.56;;;15.96;66.19
61292;BME280;47165;42.664;23.368;2022-11-20T00:36:04;94315.78;;;15.81;67.00
61292;BME280;47165;42.664;23.368;2022-11-20T00:38:31;94288.91;;;15.97;66.06
61292;BME280;47165;42.664;23.368;2022-11-20T00:40:58;94298.47;;;16.07;65.33
61292;BME280;47165;42.664;23.368;2022-11-20T00:43:25;94295.16;;;16.15;63.09
61292;BME280;47165;42.664;23.368;2022-11-20T00:45:55;94288.50;;;16.31;63.43
61292;BME280;47165;42.664;23.368;2022-11-20T00:48:21;94303.63;;;16.28;63.14
61292;BME280;47165;42.664;23.368;2022-11-20T00:50:46;94285.88;;;16.31;63.70
61292;BME280;47165;42.664;23.368;2022-11-20T00:53:11;94318.59;;;16.38;64.19
61292;BME280;47165;42.664;23.368;2022-11-20T00:55:37;94280.88;;;16.37;63.02
61292;BME280;47165;42.664;23.368;2022-11-20T00:58:02;94303.34;;;16.41;58.74
61292;BME280;47165;42.664;23.368;2022-11-20T01:00:28;94298.19;;;16.59;59.81
61292;BME280;47165;42.664;23.368;2022-11-20T01:02:55;94285.53;;;16.73;60.53
61292;BME280;47165;42.664;23.368;2022-11-20T01:05:21;94305.34;;;16.77;60.98
61292;BME280;47165;42.664;23.368;2022-11-20T01:07:46;94298.59;;;16.64;59.28
61292;BME280;47165;42.664;23.368;2022-11-20T01:10:11;94286.22;;;16.75;58.25
61292;BME280;47165;42.664;23.368;2022-11-20T01:12:37;94276.03;;;16.99;58.76
61292;BME280;47165;42.664;23.368;2022-11-20T01:15:02;94290.81;;;16.82;56.58
61292;BME280;47165;42.664;23.368;2022-11-20T01:17:28;94261.16;;;17.08;56.13
61292;BME280;47165;42.664;23.368;2022-11-20T01:19:53;94259.25;;;17.28;55.67
61292;BME280;47165;42.664;23.368;2022-11-20T01:22:19;94260.72;;;17.40;55.17
61292;BME280;47165;42.664;23.368;2022-11-20T01:24:44;94282.53;;;17.42;54.65
61292;BME280;47165;42.664;23.368;2022-11-20T01:27:10;94262.31;;;17.51;54.73
61292;BME280;47165;42.664;23.368;2022-11-20T01:29:35;94247.44;;;17.60;55.11
61292;BME280;47165;42.664;23.368;2022-11-20T01:32:01;94260.19;;;17.64;56.63
61292;BME280;47165;42.664;23.368;2022-11-20T01:34:26;94256.91;;;17.53;55.37
61292;BME280;47165;42.664;23.368;2022-11-20T01:36:52;94262.28;;;17.61;55.23
61292;BME280;47165;42.664;23.368;2022-11-20T01:39:20;94233.63;;;17.66;55.64
61292;BME280;47165;42.664;23.368;2022-11-20T01:41:48;94257.81;;;17.61;55.59
61292;BME280;47165;42.664;23.368;2022-11-20T01:47:17;94234.75;;;17.63;55.40
61292;BME280;47165;42.664;23.368;2022-11-20T01:52:55;94221.72;;;17.62;55.02
61292;BME280;47165;42.664;23.368;2022-11-20T01:55:36;94239.78;;;17.57;55.98
61292;BME280;47165;42.664;23.368;2022-11-20T01:58:05;94225.22;;;17.53;55.70
61292;BME280;47165;42.664;23.368;2022-11-20T02:00:31;94228.00;;;17.51;55.66
61292;BME280;47165;42.664;23.368;2022-11-20T02:03:20;94233.97;;;17.53;56.46
61292;BME280;47165;42.664;23.368;2022-11-20T02:05:53;94236.09;;;17.49;56.64
61292;BME280;47165;42.664;23.368;2022-11-20T02:08:21;94240.69;;;17.47;56.25
61292;BME280;47165;42.664;23.368;2022-11-20T02:10:47;94246.75;;;17.30;56.43
61292;BME280;47165;42.664;23.368;2022-11-20T02:13:12;94240.59;;;17.39;56.71
61292;BME280;47165;42.664;23.368;2022-11-20T02:15:56;94256.59;;;17.38;56.39
61292;BME280;47165;42.664;23.368;2022-11-20T02:18:23;94264.75;;;17.17;55.70
61292;BME280;47165;42.664;23.368;2022-11-20T02:20:53;94260.66;;;17.22;55.14
61292;BME280;47165;42.664;23.368;2022-11-20T02:25:57;94258.81;;;17.60;55.18
61292;BME280;47165;42.664;23.368;2022-11-20T02:28:23;94261.59;;;17.59;54.68
61292;BME280;47165;42.664;23.368;2022-11-20T02:30:49;94243.78;;;17.61;52.72
61292;BME280;47165;42.664;23.368;2022-11-20T02:33:15;94243.44;;;17.56;52.81
61292;BME280;47165;42.664;23.368;2022-11-20T02:35:43;94246.72;;;17.85;50.82
61292;BME280;47165;42.664;23.368;2022-11-20T02:38:10;94238.66;;;18.05;49.92
61292;BME280;47165;42.664;23.368;2022-11-20T02:40:35;94253.22;;;18.09;49.52
61292;BME280;47165;42.664;23.368;2022-11-20T02:43:01;94251.75;;;18.33;48.92
61292;BME280;47165;42.664;23.368;2022-11-20T02:45:26;94249.19;;;18.67;47.67
61292;BME280;47165;42.664;23.368;2022-11-20T02:47:52;94263.63;;;18.99;46.87
61292;BME280;47165;42.664;23.368;2022-11-20T02:50:18;94274.03;;;19.26;46.05
61292;BME280;47165;42.664;23.368;2022-11-20T02:52:43;94254.53;;;19.36;45.54
61292;BME280;47165;42.664;23.368;2022-11-20T02:55:09;94276.97;;;19.58;45.01
61292;BME280;47165;42.664;23.368;2022-11-20T02:57:35;94278.16;;;19.63;45.16
61292;BME280;47165;42.664;23.368;2022-11-20T03:00:01;94157.50;;;19.61;45.19
61292;BME280;47165;42.664;23.368;2022-11-20T03:02:31;94278.13;;;19.55;45.79
61292;BME280;47165;42.664;23.368;2022-11-20T03:04:56;94268.84;;;19.94;44.99
61292;BME280;47165;42.664;23.368;2022-11-20T03:07:22;94293.19;;;19.55;45.79
61292;BME280;47165;42.664;23.368;2022-11-20T03:09:47;94289.03;;;19.95;44.86
61292;BME280;47165;42.664;23.368;2022-11-20T03:12:13;94298.31;;;19.99;44.73
61292;BME280;47165;42.664;23.368;2022-11-20T03:14:39;94292.38;;;20.05;44.35
61292;BME280;47165;42.664;23.368;2022-11-20T03:17:04;94296.38;;;20.17;44.42
61292;BME280;47165;42.664;23.368;2022-11-20T03:19:30;94281.47;;;20.08;44.44
61292;BME280;47165;42.664;23.368;2022-11-20T03:21:55;94291.41;;;20.14;44.58
61292;BME280;47165;42.664;23.368;2022-11-20T03:24:20;94310.53;;;19.83;45.12
61292;BME280;47165;42.664;23.368;2022-11-20T03:26:46;94321.78;;;19.77;45.02
61292;BME280;47165;42.664;23.368;2022-11-20T03:29:11;94309.44;;;19.60;45.90
61292;BME280;47165;42.664;23.368;2022-11-20T03:31:39;94293.31;;;19.79;44.92
61292;BME280;47165;42.664;23.368;2022-11-20T03:34:09;94306.59;;;19.87;45.02
61292;BME280;47165;42.664;23.368;2022-11-20T03:36:36;94317.41;;;20.10;45.07
61292;BME280;47165;42.664;23.368;2022-11-20T03:39:02;94298.31;;;19.90;44.44
61292;BME280;47165;42.664;23.368;2022-11-20T03:41:29;94317.88;;;19.98;44.57
61292;BME280;47165;42.664;23.368;2022-11-20T03:43:57;94299.00;;;20.09;44.73
61292;BME280;47165;42.664;23.368;2022-11-20T03:46:23;94323.03;;;19.65;45.59
61292;BME280;47165;42.664;23.368;2022-11-20T03:48:49;94323.31;;;19.88;44.67
61292;BME280;47165;42.664;23.368;2022-11-20T03:51:18;94326.94;;;19.87;44.59
61292;BME280;47165;42.664;23.368;2022-11-20T03:53:45;94321.13;;;19.75;45.40
61292;BME280;47165;42.664;23.368;2022-11-20T03:56:12;94323.47;;;19.86;44.85
61292;BME280;47165;42.664;23.368;2022-11-20T03:58:39;94318.88;;;20.05;44.80
61292;BME280;47165;42.664;23.368;2022-11-20T04:01:13;94307.31;;;20.22;44.52
61292;BME280;47165;42.664;23.368;2022-11-20T04:03:41;94306.63;;;20.04;44.14
61292;BME280;47165;42.664;23.368;2022-11-20T04:06:09;94304.13;;;20.02;43.94
61292;BME280;47165;42.664;23.368;2022-11-20T04:08:35;94310.94;;;20.13;43.91
61292;BME280;47165;42.664;23.368;2022-11-20T04:11:18;94320.78;;;19.44;45.13
61292;BME280;47165;42.664;23.368;2022-11-20T04:13:52;94312.06;;;19.94;44.49
61292;BME280;47165;42.664;23.368;2022-11-20T04:16:19;94311.91;;;19.96;44.27
61292;BME280;47165;42.664;23.368;2022-11-20T04:18:44;94317.25;;;19.69;44.96
61292;BME280;47165;42.664;23.368;2022-11-20T04:21:10;94316.53;;;19.94;44.21
61292;BME280;47165;42.664;23.368;2022-11-20T04:23:36;94331.47;;;20.03;44.24
61292;BME280;47165;42.664;23.368;2022-11-20T04:26:09;94324.34;;;19.61;44.75
61292;BME280;47165;42.664;23.368;2022-11-20T04:28:36;94335.66;;;19.71;44.75
61292;BME280;47165;42.664;23.368;2022-11-20T04:31:06;94345.81;;;19.58;45.07
61292;BME280;47165;42.664;23.368;2022-11-20T04:33:33;94333.28;;;19.68;45.07
61292;BME280;47165;42.664;23.368;2022-11-20T04:36:06;94340.06;;;19.97;44.33
61292;BME280;47165;42.664;23.368;2022-11-20T04:38:33;94328.44;;;19.55;45.07
61292;BME280;47165;42.664;23.368;2022-11-20T04:41:00;94341.91;;;19.70;45.15
61292;BME280;47165;42.664;23.368;2022-11-20T04:43:26;94331.66;;;19.67;45.37
61292;BME280;47165;42.664;23.368;2022-11-20T04:45:56;94339.06;;;19.89;45.32
61292;BME280;47165;42.664;23.368;2022-11-20T04:48:22;94323.16;;;19.89;45.13
61292;BME280;47165;42.664;23.368;2022-11-20T04:50:47;94315.25;;;20.06;45.49
61292;BME280;47165;42.664;23.368;2022-11-20T04:53:14;94325.50;;;20.09;45.09
61292;BME280;47165;42.664;23.368;2022-11-20T04:55:40;94317.91;;;20.06;44.99
61292;BME280;47165;42.664;23.368;2022-11-20T04:58:05;94327.44;;;19.90;45.44
61292;BME280;47165;42.664;23.368;2022-11-20T05:00:30;94302.44;;;19.93;45.99
61292;BME280;47165;42.664;23.368;2022-11-20T05:02:56;94311.81;;;19.37;46.48
61292;BME280;47165;42.664;23.368;2022-11-20T05:05:21;94312.25;;;19.24;46.84
61292;BME280;47165;42.664;23.368;2022-11-20T05:07:47;94302.47;;;19.59;46.26
61292;BME280;47165;42.664;23.368;2022-11-20T05:10:12;94310.59;;;19.57;46.67
61292;BME280;47165;42.664;23.368;2022-11-20T05:12:38;94312.75;;;19.62;46.46
61292;BME280;47165;42.664;23.368;2022-11-20T05:15:03;94306.34;;;19.73;46.66
61292;BME280;47165;42.664;23.368;2022-11-20T05:17:29;94293.78;;;19.75;46.32
61292;BME280;47165;42.664;23.368;2022-11-20T05:19:54;94293.31;;;19.79;46.82
61292;BME280;47165;42.664;23.368;2022-11-20T05:22:19;94302.72;;;19.74;46.97
61292;BME280;47165;42.664;23.368;2022-11-20T05:24:45;94294.22;;;19.70;47.30
61292;BME280;47165;42.664;23.368;2022-11-20T05:27:10;94291.91;;;19.59;48.03
61292;BME280;47165;42.664;23.368;2022-11-20T05:29:36;94279.56;;;19.41;49.56
61292;BME280;47165;42.664;23.368;2022-11-20T05:32:01;94274.25;;;19.41;50.53
61292;BME280;47165;42.664;23.368;2022-11-20T05:34:26;94264.94;;;19.29;51.00
61292;BME280;47165;42.664;23.368;2022-11-20T05:36:52;94287.28;;;19.00;52.45
61292;BME280;47165;42.664;23.368;2022-11-20T05:39:17;94276.72;;;19.00;53.16
61292;BME280;47165;42.664;23.368;2022-11-20T05:41:43;94300.53;;;19.00;53.49
61292;BME280;47165;42.664;23.368;2022-11-20T05:44:10;94296.84;;;18.93;53.92
61292;BME280;47165;42.664;23.368;2022-11-20T05:46:36;94293.53;;;18.91;53.71
61292;BME280;47165;42.664;23.368;2022-11-20T05:49:01;94274.97;;;18.83;54.04
61292;BME280;47165;42.664;23.368;2022-11-20T05:51:27;94289.16;;;18.82;54.39
61292;BME280;47165;42.664;23.368;2022-11-20T05:53:52;94282.50;;;18.78;54.98
61292;BME280;47165;42.664;23.368;2022-11-20T05:56:20;94284.47;;;18.76;54.95
61292;BME280;47165;42.664;23.368;2022-11-20T05:58:47;94285.41;;;18.66;54.88
61292;BME280;47165;42.664;23.368;2022-11-20T06:03:43;94289.22;;;18.46;55.20
61292;BME280;47165;42.664;23.368;2022-11-20T06:06:11;94277.84;;;18.54;55.36
61292;BME280;47165;42.664;23.368;2022-11-20T06:08:37;94296.88;;;18.57;55.09
61292;BME280;47165;42.664;23.368;2022-11-20T06:11:04;94295.06;;;18.58;54.95
61292;BME280;47165;42.664;23.368;2022-11-20T06:13:29;94292.88;;;18.53;54.87
61292;BME280;47165;42.664;23.368;2022-11-20T06:15:55;94307.84;;;18.62;54.85
61292;BME280;47165;42.664;23.368;2022-11-20T06:18:20;94307.00;;;18.62;55.13
61292;BME280;47165;42.664;23.368;2022-11-20T06:20:46;94298.84;;;18.55;54.69
61292;BME280;47165;42.664;23.368;2022-11-20T06:23:12;94313.00;;;18.46;54.61
61292;BME280;47165;42.664;23.368;2022-11-20T06:25:38;94316.06;;;18.59;54.62
61292;BME280;47165;42.664;23.368;2022-11-20T06:28:04;94313.50;;;18.67;54.97
61292;BME280;47165;42.664;23.368;2022-11-20T06:30:29;94321.13;;;18.70;54.82
61292;BME280;47165;42.664;23.368;2022-11-20T06:32:55;94325.94;;;18.75;55.14
61292;BME280;47165;42.664;23.368;2022-11-20T06:35:20;94321.47;;;18.76;54.72
61292;BME280;47165;42.664;23.368;2022-11-20T06:37:46;94308.13;;;18.77;54.91
61292;BME280;47165;42.664;23.368;2022-11-20T06:40:11;94311.38;;;18.71;53.85
61292;BME280;47165;42.664;23.368;2022-11-20T06:42:37;94309.03;;;18.68;53.51
61292;BME280;47165;42.664;23.368;2022-11-20T06:45:02;94312.88;;;18.74;54.29
61292;BME280;47165;42.664;23.368;2022-11-20T06:47:28;94324.00;;;18.59;54.19
61292;BME280;47165;42.664;23.368;2022-11-20T06:49:53;94311.53;;;18.69;53.74
61292;BME280;47165;42.664;23.368;2022-11-20T06:52:18;94316.63;;;18.81;54.00
61292;BME280;47165;42.664;23.368;2022-11-20T06:54:44;94333.38;;;18.89;54.47
61292;BME280;47165;42.664;23.368;2022-11-20T06:57:09;94338.03;;;18.96;54.30
61292;BME280;47165;42.664;23.368;2022-11-20T06:59:35;94339.91;;;19.03;54.45
61292;BME280;47165;42.664;23.368;2022-11-20T07:02:00;94338.97;;;19.13;53.59
61292;BME280;47165;42.664;23.368;2022-11-20T07:04:25;94348.94;;;19.19;52.13
61292;BME280;47165;42.664;23.368;2022-11-20T07:06:51;94349.31;;;19.24;51.99
61292;BME280;47165;42.664;23.368;2022-11-20T07:09:16;94352.44;;;19.27;52.25
61292;BME280;47165;42.664;23.368;2022-11-20T07:11:42;94339.16;;;19.19;51.92
61292;BME280;47165;42.664;23.368;2022-11-20T07:14:07;94351.91;;;19.16;51.99
61292;BME280;47165;42.664;23.368;2022-11-20T07:16:33;94340.69;;;19.22;52.05
61292;BME280;47165;42.664;23.368;2022-11-20T07:18:58;94336.38;;;19.21;52.28
61292;BME280;47165;42.664;23.368;2022-11-20T07:21:24;94348.81;;;19.02;52.34
61292;BME280;47165;42.664;23.368;2022-11-20T07:23:49;94357.31;;;18.88;52.53
61292;BME280;47165;42.664;23.368;2022-11-20T07:26:15;94345.22;;;19.03;52.81
61292;BME280;47165;42.664;23.368;2022-11-20T07:28:44;94354.84;;;19.13;52.32
61292;BME280;47165;42.664;23.368;2022-11-20T07:31:09;94362.16;;;19.19;52.52
61292;BME280;47165;42.664;23.368;2022-11-20T07:33:35;94347.47;;;19.24;52.96
61292;BME280;47165;42.664;23.368;2022-11-20T07:36:00;94355.28;;;19.26;52.19
61292;BME280;47165;42.664;23.368;2022-11-20T07:38:26;94352.31;;;19.29;51.27
61292;BME280;47165;42.664;23.368;2022-11-20T07:40:56;94352.69;;;19.34;52.15
61292;BME280;47165;42.664;23.368;2022-11-20T07:43:23;94350.19;;;19.33;52.26
61292;BME280;47165;42.664;23.368;2022-11-20T07:45:48;94352.69;;;19.34;52.06
61292;BME280;47165;42.664;23.368;2022-11-20T07:48:14;94356.00;;;19.36;51.00
61292;BME280;47165;42.664;23.368;2022-11-20T07:50:39;94347.06;;;19.37;51.34
61292;BME280;47165;42.664;23.368;2022-11-20T07:53:05;94344.94;;;19.41;51.17
61292;BME280;47165;42.664;23.368;2022-11-20T07:55:30;94354.31;;;19.35;50.59
61292;BME280;47165;42.664;23.368;2022-11-20T07:57:56;94350.69;;;19.36;50.39
61292;BME280;47165;42.664;23.368;2022-11-20T08:00:22;94359.31;;;19.38;49.97
61292;BME280;47165;42.664;23.368;2022-11-20T08:02:48;94360.97;;;19.39;50.48
61292;BME280;47165;42.664;23.368;2022-11-20T08:05:13;94353.66;;;19.33;50.69
61292;BME280;47165;42.664;23.368;2022-11-20T08:07:40;94360.50;;;19.18;50.67
61292;BME280;47165;42.664;23.368;2022-11-20T08:10:08;94354.56;;;19.16;50.91
61292;BME280;47165;42.664;23.368;2022-11-20T08:12:34;94346.50;;;18.99;51.52
61292;BME280;47165;42.664;23.368;2022-11-20T08:15:18;94344.94;;;18.70;52.59
61292;BME280;47165;42.664;23.368;2022-11-20T08:17:44;94340.06;;;19.02;51.57
61292;BME280;47165;42.664;23.368;2022-11-20T08:20:09;94341.31;;;19.16;50.42
61292;BME280;47165;42.664;23.368;2022-11-20T08:22:35;94343.97;;;19.16;49.99
61292;BME280;47165;42.664;23.368;2022-11-20T08:25:00;94347.47;;;19.24;50.01
61292;BME280;47165;42.664;23.368;2022-11-20T08:27:26;94343.44;;;19.38;49.87
61292;BME280;47165;42.664;23.368;2022-11-20T08:29:51;94351.72;;;19.43;49.28
61292;BME280;47165;42.664;23.368;2022-11-20T08:32:17;94359.13;;;19.40;48.88
61292;BME280;47165;42.664;23.368;2022-11-20T08:34:42;94360.53;;;19.52;48.92
61292;BME280;47165;42.664;23.368;2022-11-20T08:37:08;94351.66;;;19.61;49.13
61292;BME280;47165;42.664;23.368;2022-11-20T08:39:33;94351.16;;;19.66;49.36
61292;BME280;47165;42.664;23.368;2022-11-20T08:41:59;94351.69;;;19.69;50.22
61292;BME280;47165;42.664;23.368;2022-11-20T08:44:24;94355.72;;;19.74;49.45
61292;BME280;47165;42.664;23.368;2022-11-20T08:46:50;94360.84;;;19.75;49.36
61292;BME280;47165;42.664;23.368;2022-11-20T08:49:15;94378.38;;;19.76;49.78
61292;BME280;47165;42.664;23.368;2022-11-20T08:51:41;94395.44;;;19.74;47.93
61292;BME280;47165;42.664;23.368;2022-11-20T08:54:07;94411.41;;;19.64;47.75
61292;BME280;47165;42.664;23.368;2022-11-20T08:56:33;94415.84;;;19.55;48.47
61292;BME280;47165;42.664;23.368;2022-11-20T08:58:59;94406.34;;;19.44;48.65
61292;BME280;47165;42.664;23.368;2022-11-20T09:01:25;94389.22;;;19.57;48.34
61292;BME280;47165;42.664;23.368;2022-11-20T09:03:50;94379.31;;;19.67;48.28
61292;BME280;47165;42.664;23.368;2022-11-20T09:06:16;94395.63;;;19.80;48.22
61292;BME280;47165;42.664;23.368;2022-11-20T09:08:42;94392.50;;;19.85;48.82
61292;BME280;47165;42.664;23.368;2022-11-20T09:11:08;94387.72;;;19.88;49.25
61292;BME280;47165;42.664;23.368;2022-11-20T09:13:35;94393.00;;;19.88;49.66
61292;BME280;47165;42.664;23.368;2022-11-20T09:16:04;94413.75;;;19.67;49.50
61292;BME280;47165;42.664;23.368;2022-11-20T09:18:31;94417.78;;;19.71;50.39
61292;BME280;47165;42.664;23.368;2022-11-20T09:21:01;94411.09;;;19.67;51.35
61292;BME280;47165;42.664;23.368;2022-11-20T09:23:31;94400.44;;;19.50;51.79
61292;BME280;47165;42.664;23.368;2022-11-20T09:25:57;94407.69;;;19.48;53.23
61292;BME280;47165;42.664;23.368;2022-11-20T09:28:25;94426.19;;;19.40;52.31
61292;BME280;47165;42.664;23.368;2022-11-20T09:30:51;94407.34;;;19.25;51.64
61292;BME280;47165;42.664;23.368;2022-11-20T09:33:16;94407.09;;;19.10;52.51
61292;BME280;47165;42.664;23.368;2022-11-20T09:35:43;94399.66;;;18.88;52.61
61292;BME280;47165;42.664;23.368;2022-11-20T09:38:09;94382.34;;;18.94;52.68
61292;BME280;47165;42.664;23.368;2022-11-20T09:40:38;94380.56;;;19.02;54.01
61292;BME280;47165;42.664;23.368;2022-11-20T09:43:28;94377.63;;;19.05;54.48
61292;BME280;47165;42.664;23.368;2022-11-20T09:46:17;94367.41;;;19.10;56.25
61292;BME280;47165;42.664;23.368;2022-11-20T09:48:58;94362.94;;;19.11;55.39
61292;BME280;47165;42.664;23.368;2022-11-20T09:51:49;94350.91;;;19.17;57.41
61292;BME280;47165;42.664;23.368;2022-11-20T09:54:22;94369.56;;;19.15;58.39
61292;BME280;47165;42.664;23.368;2022-11-20T09:56:53;94358.31;;;19.13;58.71
61292;BME280;47165;42.664;23.368;2022-11-20T10:02:12;94349.53;;;18.86;60.79
61292;BME280;47165;42.664;23.368;2022-11-20T10:04:44;94347.22;;;18.83;61.14
61292;BME280;47165;42.664;23.368;2022-11-20T10:07:23;94341.88;;;19.01;61.71
61292;BME280;47165;42.664;23.368;2022-11-20T10:09:54;94339.44;;;19.08;60.93
61292;BME280;47165;42.664;23.368;2022-11-20T10:15:37;94346.22;;;19.10;59.22
61292;BME280;47165;42.664;23.368;2022-11-20T10:20:46;94339.44;;;19.08;56.47
61292;BME280;47165;42.664;23.368;2022-11-20T10:23:34;94326.00;;;19.01;56.93
61292;BME280;47165;42.664;23.368;2022-11-20T10:29:17;94324.66;;;18.97;57.69
61292;BME280;47165;42.664;23.368;2022-11-20T10:31:46;94327.53;;;18.86;57.18
61292;BME280;47165;42.664;23.368;2022-11-20T10:37:09;94322.94;;;18.88;57.66
61292;BME280;47165;42.664;23.368;2022-11-20T10:42:42;94325.34;;;18.99;59.34
61292;BME280;47165;42.664;23.368;2022-11-20T10:47:50;94343.13;;;18.89;59.34
61292;BME280;47165;42.664;23.368;2022-11-20T10:50:19;94346.13;;;18.76;58.32
61292;BME280;47165;42.664;23.368;2022-11-20T10:53:16;94332.31;;;18.82;59.21
61292;BME280;47165;42.664;23.368;2022-11-20T10:55:55;94333.44;;;18.80;58.80
61292;BME280;47165;42.664;23.368;2022-11-20T10:58:55;94350.56;;;18.76;57.83
61292;BME280;47165;42.664;23.368;2022-11-20T11:01:25;94366.59;;;18.74;58.59
61292;BME280;47165;42.664;23.368;2022-11-20T11:03:53;94347.94;;;18.76;58.66
61292;BME280;47165;42.664;23.368;2022-11-20T11:06:40;94365.72;;;18.83;58.84
61292;BME280;47165;42.664;23.368;2022-11-20T11:09:19;94380.78;;;18.83;59.82
61292;BME280;47165;42.664;23.368;2022-11-20T11:11:46;94390.94;;;18.78;60.12
61292;BME280;47165;42.664;23.368;2022-11-20T11:14:14;94400.16;;;18.74;60.80
61292;BME280;47165;42.664;23.368;2022-11-20T11:16:54;94409.13;;;18.45;62.47
61292;BME280;47165;42.664;23.368;2022-11-20T11:19:20;94443.41;;;17.34;68.32
61292;BME280;47165;42.664;23.368;2022-11-20T11:21:54;94437.88;;;17.18;63.38
61292;BME280;47165;42.664;23.368;2022-11-20T11:24:25;94425.84;;;16.86;64.53
61292;BME280;47165;42.664;23.368;2022-11-20T11:27:01;94433.00;;;16.64;64.22
61292;BME280;47165;42.664;23.368;2022-11-20T11:29:32;94410.38;;;16.42;61.34
61292;BME280;47165;42.664;23.368;2022-11-20T11:32:11;94405.50;;;16.28;60.63
61292;BME280;47165;42.664;23.368;2022-11-20T11:34:37;94421.75;;;16.23;60.13
61292;BME280;47165;42.664;23.368;2022-11-20T11:37:04;94419.38;;;16.20;59.45
61292;BME280;47165;42.664;23.368;2022-11-20T11:39:31;94441.56;;;16.27;62.17
61292;BME280;47165;42.664;23.368;2022-11-20T11:41:58;94412.09;;;15.93;61.62
61292;BME280;47165;42.664;23.368;2022-11-20T11:44:33;94397.88;;;15.65;63.78
61292;BME280;47165;42.664;23.368;2022-11-20T11:47:22;94401.03;;;15.59;64.18
61292;BME280;47165;42.664;23.368;2022-11-20T11:49:48;94388.94;;;15.25;65.85
61292;BME280;47165;42.664;23.368;2022-11-20T11:52:18;94397.13;;;15.22;65.86
61292;BME280;47165;42.664;23.368;2022-11-20T11:54:52;94390.16;;;15.12;65.12
61292;BME280;47165;42.664;23.368;2022-11-20T12:00:08;94395.72;;;15.18;63.86
61292;BME280;47165;42.664;23.368;2022-11-20T12:05:24;94364.09;;;15.08;64.33
61292;BME280;47165;42.664;23.368;2022-11-20T12:08:02;94356.91;;;15.41;63.02
61292;BME280;47165;42.664;23.368;2022-11-20T12:10:44;94382.78;;;15.36;61.62
61292;BME280;47165;42.664;23.368;2022-11-20T12:16:14;94388.31;;;15.33;62.96
61292;BME280;47165;42.664;23.368;2022-11-20T12:18:42;94391.91;;;15.32;61.67
61292;BME280;47165;42.664;23.368;2022-11-20T12:24:35;94396.44;;;14.99;63.05
61292;BME280;47165;42.664;23.368;2022-11-20T12:27:40;94383.09;;;15.12;63.89
61292;BME280;47165;42.664;23.368;2022-11-20T12:30:14;94400.66;;;15.12;63.12
61292;BME280;47165;42.664;23.368;2022-11-20T12:48:07;94278.44;;;15.06;64.36
61292;BME280;47165;42.664;23.368;2022-11-20T12:50:47;94301.81;;;15.09;63.64
61292;BME280;47165;42.664;23.368;2022-11-20T12:59:14;94301.97;;;15.48;70.36
61292;BME280;47165;42.664;23.368;2022-11-20T13:01:56;94303.63;;;15.49;70.57
61292;BME280;47165;42.664;23.368;2022-11-20T13:06:58;94302.81;;;15.48;71.26
61292;BME280;47165;42.664;23.368;2022-11-20T13:09:24;94272.31;;;15.46;69.71
61292;BME280;47165;42.664;23.368;2022-11-20T13:14:47;94282.81;;;15.26;69.41
61292;BME280;47165;42.664;23.368;2022-11-20T13:17:41;94304.56;;;14.98;67.58
61292;BME280;47165;42.664;23.368;2022-11-20T13:20:16;94333.91;;;15.03;66.76
61292;BME280;47165;42.664;23.368;2022-11-20T13:22:56;94344.47;;;15.13;68.05
61292;BME280;47165;42.664;23.368;2022-11-20T13:27:56;94266.44;;;15.23;68.10
61292;BME280;47165;42.664;23.368;2022-11-20T13:30:26;94298.88;;;15.33;69.34
61292;BME280;47165;42.664;23.368;2022-11-20T13:33:02;94384.53;;;14.95;68.62
61292;BME280;47165;42.664;23.368;2022-11-20T13:35:41;94389.97;;;15.03;67.26
61292;BME280;47165;42.664;23.368;2022-11-20T13:38:09;94341.19;;;15.20;68.96
61292;BME280;47165;42.664;23.368;2022-11-20T13:40:38;94304.53;;;15.28;69.67
61292;BME280;47165;42.664;23.368;2022-11-20T13:45:58;94371.47;;;15.15;68.73
61292;BME280;47165;42.664;23.368;2022-11-20T13:48:26;94341.31;;;15.19;68.57
61292;BME280;47165;42.664;23.368;2022-11-20T13:56:39;94350.78;;;15.31;68.07
61292;BME280;47165;42.664;23.368;2022-11-20T13:59:28;94349.56;;;15.35;68.30
61292;BME280;47165;42.664;23.368;2022-11-20T14:01:56;94378.06;;;15.30;67.84
61292;BME280;47165;42.664;23.368;2022-11-20T14:04:35;94368.25;;;15.42;68.99
61292;BME280;47165;42.664;23.368;2022-11-20T14:07:05;94362.75;;;15.45;68.36
61292;BME280;47165;42.664;23.368;2022-11-20T14:09:33;94364.03;;;15.51;68.61
61292;BME280;47165;42.664;23.368;2022-11-20T14:11:59;94357.66;;;15.53;70.15
61292;BME280;47165;42.664;23.368;2022-11-20T14:14:27;94334.78;;;15.54;70.03
61292;BME280;47165;42.664;23.368;2022-11-20T14:17:04;94339.13;;;15.55;69.76
61292;BME280;47165;42.664;23.368;2022-11-20T14:19:30;94335.63;;;15.54;70.77